Time,TemperatureF,DewpointF,PressureIn,WindDirection,WindDirectionDegrees,WindSpeedMPH,WindSpeedGustMPH,Humidity,HourlyPrecipIn,Conditions,Clouds,dailyrainin,SoftwareType,DateUTC
2013-02-11 06:58:00,45.2,32.5,30.07,WNW,283,8.0,11.0,61,0.00,,,0.00,Wunderground v.1.15,2013-02-11 12:58:00,
2013-02-11 06:59:00,45.2,32.5,30.07,WSW,257,9.0,12.0,61,0.00,,,0.00,Wunderground v.1.15,2013-02-11 12:59:00,
2013-02-11 07:03:00,45.1,32.0,30.07,WNW,288,10.0,14.0,60,0.00,,,0.00,Wunderground v.1.15,2013-02-11 13:03:00,
2013-02-11 07:08:00,44.9,32.7,30.08,West,266,9.0,14.0,62,0.00,,,0.00,Wunderground v.1.15,2013-02-11 13:08:00,
2013-02-11 07:13:00,44.8,32.2,30.08,WSW,253,9.0,11.0,61,0.00,,,0.00,Wunderground v.1.15,2013-02-11 13:13:00,
2013-02-11 07:19:00,44.5,31.9,30.08,West,279,8.0,13.0,61,0.00,,,0.00,Wunderground v.1.15,2013-02-11 13:19:00,
2013-02-11 07:24:00,44.5,32.3,30.08,WSW,245,7.0,11.0,62,0.00,,,0.00,Wunderground v.1.15,2013-02-11 13:24:00,
2013-02-11 07:29:00,44.4,32.6,30.08,West,261,5.0,11.0,63,0.00,,,0.00,Wunderground v.1.15,2013-02-11 13:29:00,
2013-02-11 07:34:00,44.2,32.8,30.09,South,187,5.0,6.0,64,0.00,,,0.00,Wunderground v.1.15,2013-02-11 13:34:00,
2013-02-11 07:39:00,44.1,32.7,30.09,WNW,290,4.0,6.0,64,0.00,,,0.00,Wunderground v.1.15,2013-02-11 13:39:00,
2013-02-11 07:45:00,44.0,33.0,30.09,WSW,248,3.0,4.0,65,0.00,,,0.00,Wunderground v.1.15,2013-02-11 13:45:00,
2013-02-11 08:11:00,43.7,33.1,30.10,West,259,4.0,6.0,66,0.00,,,0.00,Wunderground v.1.15,2013-02-11 14:11:00,
2013-02-11 08:17:00,43.6,33.0,30.10,West,259,5.0,8.0,66,0.00,,,0.00,Wunderground v.1.15,2013-02-11 14:17:00,
2013-02-11 08:22:00,43.6,32.6,30.11,West,263,7.0,9.0,65,0.00,,,0.00,Wunderground v.1.15,2013-02-11 14:22:00,
2013-02-11 08:28:00,43.4,32.4,30.11,WSW,246,7.0,9.0,65,0.00,,,0.00,Wunderground v.1.15,2013-02-11 14:28:00,
2013-02-11 08:33:00,43.3,32.3,30.11,WSW,257,7.0,7.0,65,0.00,,,0.00,Wunderground v.1.15,2013-02-11 14:33:00,
2013-02-11 08:40:00,43.1,32.5,30.12,West,278,7.0,8.0,66,0.00,,,0.00,Wunderground v.1.15,2013-02-11 14:40:00,
2013-02-11 08:45:00,43.0,32.0,30.12,WSW,251,6.0,8.0,65,0.00,,,0.00,Wunderground v.1.15,2013-02-11 14:45:00,
2013-02-11 08:51:00,42.9,31.9,30.12,West,261,6.0,10.0,65,0.00,,,0.00,Wunderground v.1.15,2013-02-11 14:51:00,
2013-02-11 08:57:00,43.0,32.4,30.13,WNW,298,6.0,10.0,66,0.00,,,0.00,Wunderground v.1.15,2013-02-11 14:57:00,
2013-02-11 09:02:00,43.1,32.5,30.13,West,268,6.0,6.0,66,0.00,,,0.00,Wunderground v.1.15,2013-02-11 15:02:00,
2013-02-11 09:07:00,43.4,33.2,30.13,WSW,238,6.0,11.0,67,0.00,,,0.00,Wunderground v.1.15,2013-02-11 15:07:00,
2013-02-11 09:13:00,43.5,32.9,30.14,WSW,240,6.0,9.0,66,0.00,,,0.00,Wunderground v.1.15,2013-02-11 15:13:00,
2013-02-11 09:18:00,43.6,32.6,30.14,WSW,242,7.0,9.0,65,0.00,,,0.00,Wunderground v.1.15,2013-02-11 15:18:00,
2013-02-11 09:24:00,43.6,32.6,30.14,West,264,7.0,8.0,65,0.00,,,0.00,Wunderground v.1.15,2013-02-11 15:24:00,
2013-02-11 09:30:00,43.8,33.6,30.14,West,277,6.0,9.0,67,0.00,,,0.00,Wunderground v.1.15,2013-02-11 15:30:00,
2013-02-11 09:35:00,43.7,32.7,30.15,WSW,257,6.0,10.0,65,0.00,,,0.00,Wunderground v.1.15,2013-02-11 15:35:00,
2013-02-11 09:40:00,43.7,33.5,30.15,WSW,253,8.0,12.0,67,0.00,,,0.00,Wunderground v.1.15,2013-02-11 15:40:00,
2013-02-11 09:46:00,44.3,34.0,30.15,WSW,251,8.0,9.0,67,0.00,,,0.00,Wunderground v.1.15,2013-02-11 15:46:00,
2013-02-11 09:52:00,44.7,33.6,30.15,West,268,7.0,7.0,65,0.00,,,0.00,Wunderground v.1.15,2013-02-11 15:52:00,
2013-02-11 09:57:00,45.0,33.5,30.15,West,264,7.0,11.0,64,0.00,,,0.00,Wunderground v.1.15,2013-02-11 15:57:00,
2013-02-11 10:02:00,45.2,34.5,30.15,WSW,250,8.0,11.0,66,0.00,,,0.00,Wunderground v.1.15,2013-02-11 16:02:00,
2013-02-11 10:07:00,45.6,34.1,30.15,WSW,245,8.0,11.0,64,0.00,,,0.00,Wunderground v.1.15,2013-02-11 16:07:00,
2013-02-11 10:12:00,45.3,33.0,30.15,West,276,7.0,9.0,62,0.00,,,0.00,Wunderground v.1.15,2013-02-11 16:12:00,
2013-02-11 10:18:00,45.6,33.7,30.15,WSW,244,7.0,9.0,63,0.00,,,0.00,Wunderground v.1.15,2013-02-11 16:18:00,
2013-02-11 10:24:00,45.8,34.3,30.15,WSW,249,6.0,7.0,64,0.00,,,0.00,Wunderground v.1.15,2013-02-11 16:24:00,
2013-02-11 10:29:00,46.4,35.3,30.15,WSW,253,7.0,10.0,65,0.00,,,0.00,Wunderground v.1.15,2013-02-11 16:29:00,
2013-02-11 10:35:00,46.5,34.6,30.15,West,260,8.0,11.0,63,0.00,,,0.00,Wunderground v.1.15,2013-02-11 16:35:00,
2013-02-11 10:40:00,46.9,34.6,30.14,West,274,8.0,8.0,62,0.00,,,0.00,Wunderground v.1.15,2013-02-11 16:40:00,
2013-02-11 10:46:00,47.5,35.5,30.15,WSW,258,9.0,11.0,63,0.00,,,0.00,Wunderground v.1.15,2013-02-11 16:46:00,
2013-02-11 11:17:00,47.8,34.2,30.15,WSW,250,9.0,9.0,59,0.00,,,0.00,Wunderground v.1.15,2013-02-11 17:17:00,
2013-02-11 11:23:00,48.1,34.0,30.15,WSW,251,9.0,12.0,58,0.00,,,0.00,Wunderground v.1.15,2013-02-11 17:23:00,
2013-02-11 11:28:00,48.1,34.0,30.15,WSW,255,10.0,11.0,58,0.00,,,0.00,Wunderground v.1.15,2013-02-11 17:28:00,
2013-02-11 11:34:00,48.3,35.0,30.15,WSW,246,8.0,11.0,60,0.00,,,0.00,Wunderground v.1.15,2013-02-11 17:34:00,
2013-02-11 11:39:00,48.7,35.0,30.15,West,273,8.0,11.0,59,0.00,,,0.00,Wunderground v.1.15,2013-02-11 17:39:00,
2013-02-11 11:44:00,49.4,33.0,30.15,WSW,243,9.0,11.0,53,0.00,,,0.00,Wunderground v.1.15,2013-02-11 17:44:00,
2013-02-11 11:49:00,49.1,35.4,30.15,WSW,252,9.0,12.0,59,0.00,,,0.00,Wunderground v.1.15,2013-02-11 17:49:00,
2013-02-11 11:54:00,48.6,33.1,30.15,West,265,9.0,12.0,55,0.00,,,0.00,Wunderground v.1.15,2013-02-11 17:54:00,
2013-02-11 17:53:00,46.7,30.9,30.13,West,269,2.0,9.0,54,0.00,,,0.00,Wunderground v.1.15,2013-02-11 23:53:00,
2013-02-11 17:58:00,46.7,30.9,30.13,West,266,2.0,9.0,54,0.00,,,0.00,Wunderground v.1.15,2013-02-11 23:58:00,
2013-02-11 18:03:00,46.6,30.8,30.13,West,261,1.0,2.0,54,0.00,,,0.00,Wunderground v.1.15,2013-02-12 00:03:00,
2013-02-11 18:08:00,46.4,30.6,30.14,West,262,1.0,2.0,54,0.00,,,0.00,Wunderground v.1.15,2013-02-12 00:08:00,
2013-02-11 18:14:00,45.9,30.2,30.14,West,265,1.0,1.0,54,0.00,,,0.00,Wunderground v.1.15,2013-02-12 00:14:00,
2013-02-11 18:19:00,44.9,31.4,30.15,West,265,0.0,1.0,59,0.00,,,0.00,Wunderground v.1.15,2013-02-12 00:19:00,
2013-02-11 18:24:00,43.8,31.2,30.15,West,265,0.0,1.0,61,0.00,,,0.00,Wunderground v.1.15,2013-02-12 00:24:00,
2013-02-11 18:30:00,43.3,31.1,30.15,West,265,0.0,1.0,62,0.00,,,0.00,Wunderground v.1.15,2013-02-12 00:30:00,
2013-02-11 18:36:00,43.5,30.5,30.14,West,265,0.0,1.0,60,0.00,,,0.00,Wunderground v.1.15,2013-02-12 00:36:00,